createdAt,value
2022-08-27T00:03:14.102Z,52.68
2022-08-27T00:08:19.646Z,53.05
2022-08-27T00:13:25.333Z,53.21
2022-08-27T00:18:31.386Z,53.44
2022-08-27T00:23:37.217Z,53.58
2022-08-27T00:28:43.444Z,53.72
2022-08-27T00:33:49.085Z,53.77
2022-08-27T00:38:54.617Z,53.81
2022-08-27T00:44:01.166Z,53.77
2022-08-27T00:49:08.997Z,53.92
2022-08-27T00:54:18.781Z,53.60
2022-08-27T00:59:30.097Z,53.53
2022-08-27T01:04:36.334Z,53.48
2022-08-27T01:09:43.710Z,53.48
2022-08-27T01:14:49.771Z,53.51
2022-08-27T01:19:57.396Z,53.83
2022-08-27T01:25:06.537Z,53.88
2022-08-27T01:30:13.857Z,53.91
2022-08-27T01:35:19.993Z,54.16
2022-08-27T01:40:26.168Z,54.11
2022-08-27T01:45:33.898Z,54.04
2022-08-27T01:50:41.110Z,54.13
2022-08-27T01:55:48.510Z,53.89
2022-08-27T02:00:56.713Z,53.93
2022-08-27T02:06:06.119Z,54.10
2022-08-27T02:11:11.527Z,53.87
2022-08-27T02:16:16.987Z,53.90
2022-08-27T02:21:22.680Z,54.22
2022-08-27T02:26:28.800Z,54.08
2022-08-27T02:31:34.912Z,54.36
2022-08-27T02:36:40.838Z,54.48
2022-08-27T02:41:46.672Z,54.72
2022-08-27T02:46:53.640Z,54.71
2022-08-27T02:51:59.789Z,54.94
2022-08-27T02:57:05.975Z,55.25
2022-08-27T03:02:11.869Z,55.26
2022-08-27T03:07:18.798Z,55.53
2022-08-27T03:12:25.079Z,55.84
2022-08-27T03:17:48.166Z,56.00
2022-08-27T03:22:53.948Z,56.03
2022-08-27T03:27:59.349Z,55.90
2022-08-27T03:33:04.999Z,56.16
2022-08-27T03:38:11.672Z,56.41
2022-08-27T03:43:18.143Z,56.77
2022-08-27T03:48:23.828Z,57.02
2022-08-27T03:53:29.257Z,56.99
2022-08-27T03:58:35.003Z,57.30
2022-08-27T04:03:41.117Z,57.57
2022-08-27T04:08:46.851Z,57.82
2022-08-27T04:13:52.369Z,57.82
2022-08-27T04:18:58.323Z,58.18
2022-08-27T04:24:04.725Z,58.23
2022-08-27T04:29:11.074Z,58.65
2022-08-27T04:34:18.234Z,59.29
2022-08-27T04:39:24.134Z,59.72
2022-08-27T04:44:31.417Z,60.22
2022-08-27T04:49:37.798Z,60.63
2022-08-27T04:54:43.502Z,61.11
2022-08-27T04:59:49.968Z,61.37
2022-08-27T05:04:55.653Z,61.40
2022-08-27T05:10:00.917Z,61.91
2022-08-27T05:15:07.401Z,62.44
2022-08-27T05:20:14.068Z,62.91
2022-08-27T05:25:20.355Z,63.20
2022-08-27T05:30:25.957Z,63.34
2022-08-27T05:35:31.924Z,63.43
2022-08-27T05:40:37.523Z,63.48
2022-08-27T05:45:47.533Z,63.48
2022-08-27T05:50:53.684Z,63.15
2022-08-27T05:55:59.498Z,62.90
2022-08-27T06:01:10.458Z,62.65
2022-08-27T06:06:17.005Z,62.61
2022-08-27T06:11:23.414Z,62.46
2022-08-27T06:16:29.269Z,62.35
2022-08-27T06:21:35.361Z,62.12
2022-08-27T06:26:42.679Z,61.95
2022-08-27T06:31:50.937Z,61.30
2022-08-27T06:36:56.223Z,60.96
2022-08-27T06:42:02.215Z,60.71
2022-08-27T06:47:11.112Z,60.48
2022-08-27T06:52:17.466Z,60.20
2022-08-27T06:57:25.154Z,59.94
2022-08-27T07:02:30.763Z,59.45
2022-08-27T07:07:43.239Z,59.14
2022-08-27T07:12:51.465Z,59.07
2022-08-27T07:17:57.218Z,58.67
2022-08-27T07:23:03.291Z,58.33
2022-08-27T07:28:09.301Z,58.22
2022-08-27T07:33:15.387Z,57.69
2022-08-27T07:38:21.137Z,57.36
2022-08-27T07:43:44.101Z,56.95
2022-08-27T07:48:50.467Z,56.06
2022-08-27T07:53:56.142Z,55.63
2022-08-27T07:59:01.911Z,54.98
2022-08-27T08:04:08.013Z,54.56
2022-08-27T08:09:15.003Z,54.29
2022-08-27T08:14:20.813Z,54.10
2022-08-27T08:19:26.405Z,53.82
2022-08-27T08:24:31.896Z,53.07
2022-08-27T08:29:38.068Z,52.46
2022-08-27T08:34:43.704Z,52.03
2022-08-27T08:39:49.277Z,51.34
2022-08-27T08:44:57.310Z,50.77
2022-08-27T08:50:06.751Z,50.27
2022-08-27T09:09:28.272Z,40.72
2022-08-27T09:14:40.720Z,35.75
2022-08-27T09:19:53.324Z,35.77
2022-08-27T09:25:12.275Z,35.42
2022-08-27T09:30:29.864Z,34.63
2022-08-27T09:35:45.202Z,33.04
2022-08-27T09:40:57.834Z,32.10
2022-08-27T09:46:18.933Z,32.08
2022-08-27T09:51:29.990Z,35.00
2022-08-27T09:56:40.798Z,36.12
2022-08-27T10:01:59.357Z,36.27
2022-08-27T10:07:24.024Z,36.45
2022-08-27T10:12:44.585Z,36.55
2022-08-27T10:18:05.308Z,36.45
2022-08-27T10:23:25.099Z,35.52
2022-08-27T10:28:47.475Z,35.21
2022-08-27T10:34:07.442Z,34.87
2022-08-27T10:39:28.148Z,34.12
2022-08-27T10:44:49.767Z,33.64
2022-08-27T10:50:04.891Z,33.33
2022-08-27T10:55:21.429Z,33.16
2022-08-27T11:00:39.266Z,32.43
2022-08-27T11:05:50.081Z,32.00
2022-08-27T11:11:35.129Z,31.61
2022-08-27T11:16:44.813Z,30.90
2022-08-27T11:22:12.253Z,30.76
2022-08-27T11:27:31.045Z,30.74
2022-08-27T11:32:58.532Z,30.33
2022-08-27T11:38:30.182Z,30.14
2022-08-27T11:43:40.585Z,30.08
2022-08-27T11:48:57.688Z,29.71
2022-08-27T11:54:07.357Z,29.94
2022-08-27T11:59:31.740Z,29.60
2022-08-27T12:04:42.881Z,28.88
2022-08-27T12:10:20.159Z,28.24
2022-08-27T12:15:41.568Z,27.61
2022-08-27T12:20:58.456Z,27.31
2022-08-27T12:26:33.831Z,26.94
2022-08-27T12:31:46.273Z,27.05
2022-08-27T12:36:55.993Z,27.11
2022-08-27T12:42:13.889Z,26.90
2022-08-27T12:47:21.982Z,26.57
2022-08-27T12:52:49.920Z,26.73
2022-08-27T12:58:07.203Z,26.49
2022-08-27T13:03:34.941Z,26.39
2022-08-27T13:08:43.059Z,26.29
2022-08-27T13:13:52.189Z,26.66
2022-08-27T13:19:00.700Z,26.21
2022-08-27T13:24:12.176Z,26.07
2022-08-27T13:29:20.700Z,25.91
2022-08-27T13:34:34.782Z,25.71
2022-08-27T13:39:42.918Z,25.84
2022-08-27T13:44:51.426Z,25.94
2022-08-27T13:50:09.374Z,26.04
2022-08-27T13:55:20.628Z,25.73
2022-08-27T14:00:32.772Z,25.32
2022-08-27T14:05:58.772Z,25.17
2022-08-27T14:11:10.540Z,25.05
2022-08-27T14:16:27.322Z,24.70
2022-08-27T14:21:36.455Z,24.56
2022-08-27T14:26:45.484Z,24.36
2022-08-27T14:31:53.790Z,23.88
2022-08-27T14:37:02.342Z,23.72
2022-08-27T14:42:11.859Z,23.52
2022-08-27T14:47:20.570Z,23.20
2022-08-27T14:52:29.049Z,23.12
2022-08-27T14:57:37.092Z,23.05
2022-08-27T15:02:49.484Z,23.15
2022-08-27T15:07:58.663Z,23.14
2022-08-27T15:13:07.860Z,23.00
2022-08-27T15:18:16.826Z,23.18
2022-08-27T15:23:25.431Z,23.21
2022-08-27T15:28:34.376Z,22.93
2022-08-27T15:33:43.651Z,22.80
2022-08-27T15:38:51.829Z,22.93
2022-08-27T15:44:00.063Z,22.83
2022-08-27T15:49:10.284Z,22.84
2022-08-27T15:54:19.543Z,22.95
2022-08-27T15:59:28.557Z,23.11
2022-08-27T16:04:36.639Z,22.93
2022-08-27T16:09:45.318Z,22.97
2022-08-27T16:14:54.690Z,22.83
2022-08-27T16:20:02.684Z,22.83
2022-08-27T16:25:16.522Z,22.70
2022-08-27T16:30:29.034Z,22.75
2022-08-27T16:35:37.010Z,22.98
2022-08-27T16:40:48.942Z,22.99
2022-08-27T16:46:00.069Z,22.84
2022-08-27T16:51:12.139Z,23.15
2022-08-27T16:56:23.440Z,23.13
2022-08-27T17:01:37.385Z,23.41
2022-08-27T17:06:45.906Z,23.37
2022-08-27T17:11:57.823Z,23.54
2022-08-27T17:17:06.873Z,23.57
2022-08-27T17:22:15.179Z,23.96
2022-08-27T17:27:23.103Z,24.03
2022-08-27T17:32:36.717Z,24.30
2022-08-27T17:37:45.034Z,24.93
2022-08-27T17:42:53.151Z,26.21
2022-08-27T17:48:01.130Z,26.85
2022-08-27T17:53:21.119Z,27.81
2022-08-27T17:58:29.234Z,28.31
2022-08-27T18:03:44.956Z,28.53
2022-08-27T18:08:56.431Z,28.98
2022-08-27T18:14:05.154Z,29.63
2022-08-27T18:19:12.402Z,30.22
2022-08-27T18:24:21.055Z,30.53
2022-08-27T18:29:30.319Z,31.04
2022-08-27T18:34:40.709Z,31.75
2022-08-27T18:39:49.034Z,32.53
2022-08-27T18:44:57.178Z,33.15
2022-08-27T18:50:06.123Z,33.63
2022-08-27T18:55:19.687Z,34.26
2022-08-27T19:00:28.885Z,34.79
2022-08-27T19:05:37.955Z,35.51
2022-08-27T19:10:47.160Z,36.02
2022-08-27T19:15:58.924Z,36.43
2022-08-27T19:21:07.792Z,36.81
2022-08-27T19:26:20.190Z,37.24
2022-08-27T19:31:29.529Z,37.85
2022-08-27T19:36:42.388Z,38.30
2022-08-27T19:41:50.744Z,38.81
2022-08-27T19:46:59.662Z,39.28
2022-08-27T19:52:09.060Z,39.71
2022-08-27T19:57:17.369Z,40.20
2022-08-27T20:02:26.826Z,40.67
2022-08-27T20:07:35.289Z,40.95
2022-08-27T20:12:44.391Z,41.31
2022-08-27T20:17:53.421Z,41.37
2022-08-27T20:23:03.184Z,41.88
2022-08-27T20:28:35.376Z,42.22
2022-08-27T20:33:41.052Z,42.78
2022-08-27T20:38:49.292Z,43.00
2022-08-27T20:43:57.206Z,43.33
2022-08-27T20:49:06.391Z,43.65
2022-08-27T20:54:14.271Z,43.82
2022-08-27T20:59:41.032Z,44.26
2022-08-27T21:04:49.849Z,44.81
2022-08-27T21:09:58.116Z,44.96
2022-08-27T21:15:08.972Z,45.32
2022-08-27T21:20:17.453Z,45.50
2022-08-27T21:25:26.478Z,46.00
2022-08-27T21:30:34.802Z,46.10
2022-08-27T21:35:42.941Z,46.41
2022-08-27T21:40:51.010Z,46.56
2022-08-27T21:46:00.341Z,46.74
2022-08-27T21:51:13.953Z,47.07
2022-08-27T21:56:22.261Z,47.44
2022-08-27T22:01:30.211Z,47.62
2022-08-27T22:06:38.293Z,47.82
2022-08-27T22:11:47.288Z,48.16
2022-08-27T22:16:56.006Z,48.21
2022-08-27T22:22:04.007Z,48.45
2022-08-27T22:27:12.463Z,48.46
2022-08-27T22:32:20.946Z,49.00
2022-08-27T22:37:30.549Z,49.14
2022-08-27T22:42:39.316Z,49.39
2022-08-27T22:47:47.504Z,49.57
2022-08-27T22:52:55.845Z,49.73
2022-08-27T22:58:03.882Z,49.92
2022-08-27T23:03:14.168Z,50.49
2022-08-27T23:08:23.444Z,50.75
2022-08-27T23:13:32.053Z,50.69
2022-08-27T23:18:40.218Z,50.95
2022-08-27T23:23:48.612Z,51.13
2022-08-27T23:28:56.683Z,51.64
2022-08-27T23:34:05.043Z,51.60
2022-08-27T23:39:15.387Z,51.58
2022-08-27T23:44:22.807Z,51.79
2022-08-27T23:49:32.797Z,52.26
2022-08-27T23:54:41.237Z,52.40
2022-08-27T23:59:49.255Z,52.54
